Time;durP1;ratioP1;P1;durP2;ratioP2;P2;SDS_P1;SDS_P2;PMS_P1;PMS_P2;Temp;Humidity;BMP_temperature;BMP_pressure;BME280_temperature;BME280_humidity;BME280_pressure;Samples;Min_cycle;Max_cycle;Signal;HPM_P1;HPM_P2
2021/06/20 00:01:33;;;;;;;7.97;2.14;;;;;;;23.62;67.45;98573.31;2003357;78;21375;-77
2021/06/20 00:04:36;;;;;;;8.10;2.49;;;;;;;23.42;66.94;98566.75;2003241;81;20198;-76
2021/06/20 00:07:41;;;;;;;10.73;2.35;;;;;;;23.37;67.26;98568.88;2003194;81;20260;-77
2021/06/20 00:10:44;;;;;;;6.68;1.81;;;;;;;23.29;67.60;98568.53;2003062;81;20265;-77
2021/06/20 00:13:46;;;;;;;11.09;1.95;;;;;;;23.23;67.30;98564.53;2003623;81;20255;-77
2021/06/20 00:16:49;;;;;;;4.76;1.50;;;;;;;23.13;67.28;98561.66;2000660;78;21932;-78
2021/06/20 00:19:51;;;;;;;10.07;2.09;;;;;;;23.03;67.22;98570.34;1999029;81;20202;-77
2021/06/20 00:22:54;;;;;;;7.61;1.79;;;;;;;22.95;67.46;98567.34;2002144;81;20216;-77
2021/06/20 00:25:57;;;;;;;7.89;2.13;;;;;;;22.90;67.70;98571.16;1998807;81;21200;-78
2021/06/20 00:29:00;;;;;;;6.78;1.99;;;;;;;22.86;67.92;98587.38;1998374;81;20202;-77
2021/06/20 00:32:03;;;;;;;8.41;2.00;;;;;;;22.77;68.14;98601.19;2001653;79;22278;-77
2021/06/20 00:35:06;;;;;;;10.39;1.84;;;;;;;22.62;68.39;98595.09;2003096;81;20695;-77
2021/06/20 00:38:08;;;;;;;9.56;2.24;;;;;;;22.52;68.75;98601.97;2003646;81;20259;-77
2021/06/20 00:41:11;;;;;;;6.91;1.80;;;;;;;22.47;68.94;98601.44;2003398;81;20231;-77
2021/06/20 00:44:14;;;;;;;6.54;2.30;;;;;;;22.45;69.32;98601.53;2002711;81;20346;-77
2021/06/20 00:47:18;;;;;;;6.64;1.69;;;;;;;22.41;69.48;98597.38;1998712;78;21450;-77
2021/06/20 00:50:21;;;;;;;8.19;2.34;;;;;;;22.37;69.81;98606.47;1998222;81;20309;-76
2021/06/20 00:53:23;;;;;;;8.06;1.76;;;;;;;22.26;69.64;98611.59;1997902;81;20763;-76
2021/06/20 00:56:27;;;;;;;12.32;2.28;;;;;;;22.20;69.69;98638.44;1998523;81;20256;-77
2021/06/20 00:59:29;;;;;;;6.60;1.39;;;;;;;22.15;69.83;98629.97;1998092;81;20232;-77
2021/06/20 01:02:33;;;;;;;8.81;2.03;;;;;;;22.06;70.26;98620.78;2002201;78;21227;-77
2021/06/20 01:05:35;;;;;;;7.54;2.08;;;;;;;22.01;70.74;98607.84;2003363;81;20214;-77
2021/06/20 01:08:38;;;;;;;5.90;1.66;;;;;;;21.95;70.84;98623.25;2004494;81;21220;-77
2021/06/20 01:11:41;;;;;;;5.65;1.83;;;;;;;21.89;70.87;98636.84;2003856;81;20208;-78
2021/06/20 01:14:45;;;;;;;9.93;2.00;;;;;;;21.81;71.06;98639.97;2003023;81;20868;-77
2021/06/20 01:17:48;;;;;;;9.41;1.89;;;;;;;21.74;71.28;98637.81;1998861;78;23025;-78
2021/06/20 01:20:51;;;;;;;8.23;2.01;;;;;;;21.74;71.68;98649.25;1998391;81;20194;-76
2021/06/20 01:23:54;;;;;;;6.22;1.98;;;;;;;21.70;71.89;98639.78;1998354;81;20206;-78
2021/06/20 01:26:56;;;;;;;7.05;1.61;;;;;;;21.69;72.27;98632.81;1998138;81;20272;-77
2021/06/20 01:30:03;;;;;;;5.11;1.48;;;;;;;21.70;72.44;98627.41;1998187;81;20256;-77
2021/06/20 01:33:09;;;;;;;8.44;1.84;;;;;;;21.66;72.62;98640.91;1993032;79;21550;-76
2021/06/20 01:36:13;;;;;;;8.43;2.31;;;;;;;21.53;72.96;98658.47;1992995;81;20248;-77
2021/06/20 01:39:16;;;;;;;4.72;1.30;;;;;;;21.50;73.07;98693.84;1993045;81;20407;-77
2021/06/20 01:42:18;;;;;;;10.51;1.77;;;;;;;21.44;73.39;98704.78;1992020;81;21103;-77
2021/06/20 01:45:22;;;;;;;6.94;2.11;;;;;;;21.40;73.51;98713.84;1993441;78;20454;-78
2021/06/20 01:48:25;;;;;;;8.21;1.42;;;;;;;21.27;74.11;98720.78;2003938;81;20185;-77
2021/06/20 01:51:28;;;;;;;11.26;2.14;;;;;;;21.21;74.33;98724.59;2003155;81;20211;-78
2021/06/20 01:54:50;;;;;;;8.23;1.75;;;;;;;21.17;74.43;98715.13;2003770;81;20196;-78
2021/06/20 01:57:52;;;;;;;7.24;1.60;;;;;;;21.09;75.02;98723.50;2004666;81;20321;-77
2021/06/20 02:00:56;;;;;;;7.31;1.65;;;;;;;21.01;75.39;98715.19;2001316;78;20223;-78
2021/06/20 02:03:59;;;;;;;5.63;1.91;;;;;;;20.97;75.69;98716.28;1998931;81;20211;-78
2021/06/20 02:07:02;;;;;;;7.84;1.34;;;;;;;20.97;75.81;98708.38;1998585;81;20211;-78
2021/06/20 02:10:12;;;;;;;8.50;2.13;;;;;;;20.90;76.58;98704.41;1998755;81;20889;-77
2021/06/20 02:13:16;;;;;;;5.25;1.46;;;;;;;20.93;76.36;98709.50;1999386;80;20287;-77
2021/06/20 02:16:18;;;;;;;3.56;1.40;;;;;;;20.92;76.28;98702.53;2000654;78;20197;-78
2021/06/20 02:19:21;;;;;;;5.40;1.25;;;;;;;20.97;76.25;98707.53;2004367;81;20869;-78
2021/06/20 02:22:27;;;;;;;5.82;1.95;;;;;;;20.93;76.68;98704.22;2004073;81;20213;-77
2021/06/20 02:25:30;;;;;;;6.22;1.60;;;;;;;20.90;76.90;98724.66;2004001;81;20271;-77
2021/06/20 02:28:32;;;;;;;4.34;1.51;;;;;;;20.82;77.37;98735.63;2004121;81;20466;-77
2021/06/20 02:31:35;;;;;;;7.51;1.46;;;;;;;20.74;77.69;98749.28;2003824;81;20255;-78
2021/06/20 02:34:39;;;;;;;4.95;1.45;;;;;;;20.75;77.51;98756.25;2004042;81;20255;-77
2021/06/20 02:37:44;;;;;;;6.16;2.19;;;;;;;20.71;77.84;98745.97;2003832;81;20216;-78
2021/06/20 02:40:47;;;;;;;6.35;1.56;;;;;;;20.66;77.98;98740.09;2003460;81;20213;-77
2021/06/20 02:43:49;;;;;;;3.75;1.39;;;;;;;20.61;78.15;98748.25;2003543;81;20776;-77
2021/06/20 02:46:53;;;;;;;5.47;1.35;;;;;;;20.50;78.68;98748.00;1999050;78;21664;-79
2021/06/20 02:49:57;;;;;;;3.97;1.35;;;;;;;20.48;78.79;98745.47;1998687;81;20247;-78
2021/06/20 02:52:59;;;;;;;5.13;1.20;;;;;;;20.44;78.99;98754.44;1998896;81;20230;-78
2021/06/20 02:56:02;;;;;;;8.07;2.10;;;;;;;20.45;78.72;98744.75;1999081;81;20191;-78
2021/06/20 02:59:04;;;;;;;3.94;1.74;;;;;;;20.42;78.83;98747.56;1998986;81;20675;-78
2021/06/20 03:02:07;;;;;;;6.64;1.45;;;;;;;20.39;78.99;98745.91;2000639;80;20259;-77
2021/06/20 03:05:10;;;;;;;9.40;1.52;;;;;;;20.34;79.26;98755.88;2003193;81;20223;-79
2021/06/20 03:08:12;;;;;;;2.51;1.33;;;;;;;20.32;79.19;98773.56;2003712;81;20800;-78
2021/06/20 03:11:16;;;;;;;4.56;1.26;;;;;;;20.29;79.21;98771.09;2003715;81;20205;-78
2021/06/20 03:14:19;;;;;;;5.14;1.44;;;;;;;20.28;79.26;98766.72;2003859;81;20270;-78
2021/06/20 03:17:22;;;;;;;4.88;1.51;;;;;;;20.24;79.35;98773.09;1999326;78;22505;-78
2021/06/20 03:20:25;;;;;;;5.64;1.42;;;;;;;20.18;79.43;98778.72;1999405;81;20194;-78
2021/06/20 03:23:28;;;;;;;4.94;1.34;;;;;;;20.17;79.36;98775.22;1998558;81;20202;-79
2021/06/20 03:26:31;;;;;;;4.32;1.35;;;;;;;20.17;79.21;98779.66;1998588;81;20247;-79
2021/06/20 03:29:34;;;;;;;4.75;1.73;;;;;;;20.13;79.25;98781.59;1999627;81;20225;-79
2021/06/20 03:32:37;;;;;;;5.38;1.34;;;;;;;20.10;79.45;98786.16;2002177;81;24153;-78
2021/06/20 03:35:39;;;;;;;4.88;1.30;;;;;;;20.13;79.11;98794.78;2003727;81;20193;-79
2021/06/20 03:38:42;;;;;;;7.51;1.50;;;;;;;20.14;78.93;98800.91;2002916;81;20250;-78
2021/06/20 03:41:45;;;;;;;5.84;1.56;;;;;;;20.13;78.83;98797.44;2003001;81;20587;-78
2021/06/20 03:44:48;;;;;;;7.57;1.49;;;;;;;20.21;78.46;98797.84;2003101;81;20774;-78
2021/06/20 03:47:50;;;;;;;2.95;1.38;;;;;;;20.22;78.32;98798.72;1998575;78;22486;-79
2021/06/20 03:50:53;;;;;;;5.25;1.20;;;;;;;20.28;78.09;98797.53;1999855;81;20220;-79
2021/06/20 03:53:56;;;;;;;6.80;1.45;;;;;;;20.33;77.73;98796.38;1999991;81;20458;-79
2021/06/20 03:56:58;;;;;;;8.45;1.54;;;;;;;20.38;77.19;98796.09;1999152;81;20186;-78
2021/06/20 04:00:07;;;;;;;2.74;0.94;;;;;;;20.43;77.07;98800.22;1999020;81;20191;-79
2021/06/20 04:03:09;;;;;;;4.84;1.46;;;;;;;20.44;77.10;98793.16;2004505;78;20715;-80
2021/06/20 04:06:12;;;;;;;6.19;1.35;;;;;;;20.52;77.06;98812.94;2004271;81;20596;-79
2021/06/20 04:09:15;;;;;;;2.59;1.06;;;;;;;20.55;76.48;98811.06;2003810;81;20198;-79
2021/06/20 04:12:17;;;;;;;3.10;1.20;;;;;;;20.57;76.13;98812.66;2003679;81;20202;-80
2021/06/20 04:15:20;;;;;;;3.71;1.00;;;;;;;20.58;75.66;98822.28;2002988;78;20679;-79
2021/06/20 04:18:23;;;;;;;4.86;1.20;;;;;;;20.59;75.73;98831.06;2001329;81;20190;-80
2021/06/20 04:21:26;;;;;;;4.79;1.51;;;;;;;20.61;75.42;98840.59;2001373;81;20227;-80
2021/06/20 04:24:29;;;;;;;6.35;1.29;;;;;;;20.58;75.53;98824.94;2001435;81;20213;-80
2021/06/20 04:27:32;;;;;;;5.90;1.17;;;;;;;20.60;75.42;98820.41;2005398;81;20196;-80
2021/06/20 04:30:34;;;;;;;2.51;1.10;;;;;;;20.68;75.07;98825.28;2004256;78;23855;-80
2021/06/20 04:33:37;;;;;;;3.60;1.20;;;;;;;20.68;74.60;98825.28;2011143;80;20205;-80
2021/06/20 04:36:40;;;;;;;2.84;1.11;;;;;;;20.66;74.40;98829.81;2008195;81;20267;-81
2021/06/20 04:39:42;;;;;;;4.95;1.01;;;;;;;20.65;74.41;98828.09;2005763;81;20934;-79
2021/06/20 04:42:54;;;;;;;6.03;1.10;;;;;;;20.64;73.73;98816.66;2002575;81;20193;-78
2021/06/20 04:45:57;;;;;;;3.58;1.00;;;;;;;20.65;72.69;98814.91;2002663;78;20280;-79
2021/06/20 04:49:08;;;;;;;4.31;1.01;;;;;;;20.70;72.47;98819.00;2003590;81;20309;-78
2021/06/20 04:52:12;;;;;;;3.97;1.08;;;;;;;20.77;72.02;98824.78;2002979;81;20205;-78
2021/06/20 04:55:15;;;;;;;5.32;1.04;;;;;;;20.87;71.73;98825.97;2004268;81;20733;-79
2021/06/20 04:58:18;;;;;;;5.72;1.24;;;;;;;20.94;71.64;98821.19;2003375;81;20381;-78
2021/06/20 05:01:21;;;;;;;4.38;1.00;;;;;;;20.94;71.61;98822.06;2002495;81;20702;-79
2021/06/20 05:04:23;;;;;;;3.30;0.85;;;;;;;20.98;71.78;98817.44;2002957;81;20700;-78
2021/06/20 05:07:26;;;;;;;7.19;1.24;;;;;;;20.95;71.73;98820.25;2003313;81;20212;-79
2021/06/20 05:10:29;;;;;;;2.72;0.90;;;;;;;21.00;71.83;98823.50;2003822;81;21065;-78
2021/06/20 05:13:31;;;;;;;7.53;1.02;;;;;;;21.00;72.03;98824.34;2003487;81;20238;-79
2021/06/20 05:16:34;;;;;;;2.60;0.94;;;;;;;21.05;72.02;98830.22;2000007;79;21062;-79
2021/06/20 05:19:37;;;;;;;4.64;1.10;;;;;;;21.11;71.95;98829.03;1999018;81;20195;-79
2021/06/20 05:22:40;;;;;;;5.95;1.30;;;;;;;21.35;71.46;98832.09;1997479;81;20194;-79
2021/06/20 05:25:43;;;;;;;4.50;1.13;;;;;;;21.56;70.80;98825.59;1999167;81;20673;-79
2021/06/20 05:28:45;;;;;;;4.21;1.19;;;;;;;21.93;69.51;98823.41;1998321;81;20257;-77
2021/06/20 05:31:48;;;;;;;5.35;1.33;;;;;;;22.21;68.48;98823.47;2005228;78;28164;-78
2021/06/20 05:34:51;;;;;;;4.21;1.04;;;;;;;22.61;67.33;98824.50;2008791;81;20674;-81
2021/06/20 05:37:54;;;;;;;5.16;1.10;;;;;;;22.95;66.07;98822.41;2011903;81;20235;-82
2021/06/20 05:40:59;;;;;;;3.20;1.20;;;;;;;23.16;65.56;98822.81;2005514;81;20263;-79
2021/06/20 05:44:02;;;;;;;6.36;1.00;;;;;;;23.14;64.42;98811.47;2005147;81;20227;-78
2021/06/20 05:47:04;;;;;;;5.29;0.86;;;;;;;23.00;63.99;98811.53;2004821;78;22552;-79
2021/06/20 05:50:08;;;;;;;3.94;1.08;;;;;;;22.98;64.31;98811.63;2005022;80;20213;-79
2021/06/20 05:53:10;;;;;;;1.73;0.80;;;;;;;22.79;64.88;98819.84;2004234;81;20177;-79
2021/06/20 05:56:13;;;;;;;6.60;1.11;;;;;;;22.86;65.09;98820.34;2004337;81;20230;-79
2021/06/20 05:59:16;;;;;;;4.45;0.90;;;;;;;22.77;65.16;98815.59;2005261;81;20215;-79
2021/06/20 06:02:18;;;;;;;5.10;0.91;;;;;;;22.90;64.47;98828.00;2004511;78;27402;-78
2021/06/20 06:05:21;;;;;;;2.39;0.90;;;;;;;22.92;64.54;98828.75;2005654;81;20233;-79
2021/06/20 06:08:23;;;;;;;3.39;1.00;;;;;;;23.35;62.58;98839.22;2005924;81;20749;-79
2021/06/20 06:11:26;;;;;;;1.51;0.76;;;;;;;23.27;62.81;98838.88;2005955;81;20690;-79
2021/06/20 06:14:29;;;;;;;2.63;0.74;;;;;;;23.32;62.61;98820.00;2006612;81;20231;-79
2021/06/20 06:17:31;;;;;;;4.89;1.00;;;;;;;23.10;63.06;98823.22;2001119;78;22399;-76
2021/06/20 06:20:34;;;;;;;3.84;0.70;;;;;;;23.25;62.34;98839.91;1999921;81;20204;-76
2021/06/20 06:23:37;;;;;;;3.41;0.90;;;;;;;23.19;62.94;98846.47;1998611;81;20195;-75
2021/06/20 06:26:39;;;;;;;5.09;0.80;;;;;;;23.20;62.69;98846.38;1997279;81;20261;-74
2021/06/20 06:29:42;;;;;;;3.84;1.46;;;;;;;22.95;63.22;98848.03;1997481;81;20251;-75
2021/06/20 06:32:46;;;;;;;2.41;0.90;;;;;;;22.74;64.00;98836.97;2000656;78;22485;-75
2021/06/20 06:35:48;;;;;;;2.84;0.90;;;;;;;22.55;64.08;98859.28;2002459;81;20190;-74
2021/06/20 06:38:56;;;;;;;6.13;1.40;;;;;;;22.43;64.30;98857.38;2001690;81;20229;-74
2021/06/20 06:41:59;;;;;;;5.06;1.35;;;;;;;22.35;65.09;98856.19;2001483;81;20584;-72
2021/06/20 06:45:03;;;;;;;4.61;1.09;;;;;;;22.72;64.02;98852.94;2001702;81;20240;-74
2021/06/20 06:48:07;;;;;;;4.95;0.90;;;;;;;22.68;64.28;98846.16;2002019;78;20231;-74
2021/06/20 06:51:09;;;;;;;4.72;0.90;;;;;;;22.97;63.37;98848.78;2001967;81;20693;-73
2021/06/20 06:54:12;;;;;;;2.89;0.94;;;;;;;23.23;61.40;98839.16;2001275;81;20193;-74
2021/06/20 06:57:15;;;;;;;3.47;0.75;;;;;;;23.60;60.72;98838.47;2001887;81;20185;-74
2021/06/20 07:00:18;;;;;;;3.60;0.86;;;;;;;24.04;59.82;98843.44;2000654;81;21116;-75
2021/06/20 07:03:20;;;;;;;1.55;0.70;;;;;;;24.35;57.73;98839.56;1997740;81;20235;-73
2021/06/20 07:06:24;;;;;;;1.92;0.77;;;;;;;24.72;57.33;98839.63;1996775;81;20229;-74
2021/06/20 07:09:26;;;;;;;3.19;0.70;;;;;;;25.06;55.79;98843.38;1996908;81;20237;-74
2021/06/20 07:12:32;;;;;;;2.38;0.64;;;;;;;25.12;55.76;98842.94;1997155;81;20202;-74
2021/06/20 07:15:35;;;;;;;1.86;0.70;;;;;;;25.28;54.47;98834.69;1997954;78;21579;-74
2021/06/20 07:18:38;;;;;;;1.56;0.75;;;;;;;25.14;55.19;98830.41;2003220;81;20166;-75
2021/06/20 07:21:41;;;;;;;3.65;0.80;;;;;;;25.53;54.54;98810.66;2003167;81;20198;-74
2021/06/20 07:24:43;;;;;;;2.34;0.80;;;;;;;25.80;53.46;98793.59;2002813;81;20339;-74
2021/06/20 07:27:47;;;;;;;4.63;0.71;;;;;;;25.80;52.79;98778.47;2003037;81;20212;-74
2021/06/20 07:30:50;;;;;;;2.96;0.90;;;;;;;25.76;51.81;98766.41;1997429;78;20186;-74
2021/06/20 07:33:52;;;;;;;2.97;0.80;;;;;;;25.73;51.92;98771.09;1993047;81;20207;-74
2021/06/20 07:36:56;;;;;;;3.42;0.80;;;;;;;25.84;52.29;98768.44;1993316;81;20226;-74
2021/06/20 07:39:59;;;;;;;1.85;0.71;;;;;;;25.91;51.81;98793.63;1993269;81;20214;-74
2021/06/20 07:43:01;;;;;;;4.41;0.69;;;;;;;25.84;51.33;98805.69;1993084;81;20202;-74
2021/06/20 07:46:04;;;;;;;2.15;0.64;;;;;;;25.58;51.55;98808.50;1992838;81;20206;-73
2021/06/20 07:49:07;;;;;;;5.21;0.70;;;;;;;25.60;51.09;98811.88;1993046;81;20191;-76
2021/06/20 07:52:10;;;;;;;3.64;0.70;;;;;;;25.85;52.13;98821.56;1993845;81;20199;-74
2021/06/20 07:55:13;;;;;;;2.88;0.60;;;;;;;25.70;51.38;98812.09;1993529;81;20221;-70
2021/06/20 07:58:16;;;;;;;4.35;0.91;;;;;;;25.49;52.63;98821.63;1993859;81;20638;-76
2021/06/20 08:01:19;;;;;;;2.97;0.70;;;;;;;25.27;52.89;98812.59;1997384;78;20243;-75
2021/06/20 08:04:22;;;;;;;1.58;0.64;;;;;;;25.08;53.63;98812.25;2003039;81;20314;-75
2021/06/20 08:07:24;;;;;;;1.01;0.64;;;;;;;24.90;54.43;98824.16;2003582;81;20276;-75
2021/06/20 08:10:27;;;;;;;1.54;0.70;;;;;;;24.81;54.62;98817.72;2003398;81;20220;-74
2021/06/20 08:13:30;;;;;;;1.24;0.63;;;;;;;24.86;55.23;98810.28;2002693;81;20263;-74
2021/06/20 08:16:32;;;;;;;3.26;0.84;;;;;;;24.95;55.62;98809.59;2000155;78;21722;-73
2021/06/20 08:19:35;;;;;;;2.26;0.70;;;;;;;25.10;54.68;98804.16;1998595;81;20182;-76
2021/06/20 08:22:39;;;;;;;3.56;0.80;;;;;;;25.22;53.51;98804.13;1998596;81;20231;-75
2021/06/20 08:25:42;;;;;;;1.49;0.70;;;;;;;25.42;53.39;98813.25;1998631;81;20178;-76
2021/06/20 08:28:45;;;;;;;9.46;1.06;;;;;;;25.44;52.06;98823.78;1998124;81;20210;-77
2021/06/20 08:31:48;;;;;;;1.98;0.64;;;;;;;25.33;53.10;98816.63;1997236;81;22975;-75
2021/06/20 08:34:51;;;;;;;3.49;0.91;;;;;;;25.35;53.55;98806.72;2002210;81;20182;-75
2021/06/20 08:37:54;;;;;;;3.17;0.71;;;;;;;25.33;54.54;98827.25;2004052;81;20169;-77
2021/06/20 08:40:57;;;;;;;1.50;0.69;;;;;;;25.10;53.80;98815.63;2004202;81;20637;-75
2021/06/20 08:43:59;;;;;;;3.30;0.70;;;;;;;24.95;54.48;98816.72;2003588;81;20182;-76
2021/06/20 08:47:04;;;;;;;3.46;0.80;;;;;;;24.81;54.06;98806.25;2005507;78;21774;-75
2021/06/20 08:50:07;;;;;;;4.25;0.80;;;;;;;24.70;54.44;98805.22;2007611;80;20843;-75
2021/06/20 08:53:15;;;;;;;1.24;0.80;;;;;;;24.82;55.45;98802.66;2007646;80;20646;-77
2021/06/20 08:56:17;;;;;;;2.42;0.83;;;;;;;25.06;55.37;98806.19;2009933;80;20185;-77
2021/06/20 08:59:22;;;;;;;1.91;0.80;;;;;;;25.16;54.55;98804.56;2008106;80;20776;-77
2021/06/20 09:02:26;;;;;;;2.89;0.80;;;;;;;25.20;53.79;98800.72;2003453;79;22488;-77
2021/06/20 09:05:29;;;;;;;1.70;0.70;;;;;;;25.12;53.85;98797.75;2004053;81;20229;-77
2021/06/20 09:08:32;;;;;;;2.38;0.95;;;;;;;25.16;53.83;98787.78;2004151;81;20686;-78
2021/06/20 09:11:38;;;;;;;2.13;0.76;;;;;;;25.19;54.29;98790.22;2003809;81;20295;-78
2021/06/20 09:14:43;;;;;;;1.81;0.80;;;;;;;25.30;53.64;98796.41;2003725;81;20185;-77
2021/06/20 09:17:50;;;;;;;3.97;0.88;;;;;;;25.43;54.18;98791.03;2004174;80;21341;-77
2021/06/20 09:20:53;;;;;;;4.41;0.87;;;;;;;25.48;54.13;98799.50;2008697;80;20199;-78
2021/06/20 09:23:59;;;;;;;2.83;0.85;;;;;;;25.30;53.13;98798.22;2008911;80;20235;-78
2021/06/20 09:27:02;;;;;;;4.01;0.90;;;;;;;25.05;53.77;98809.81;2009341;80;20681;-78
2021/06/20 09:30:09;;;;;;;2.30;0.96;;;;;;;25.07;53.23;98794.59;2005448;80;20709;-75
2021/06/20 09:33:12;;;;;;;3.64;0.90;;;;;;;25.23;53.54;98787.22;1991593;81;968940;-77
2021/06/20 09:36:14;;;;;;;2.99;1.17;;;;;;;25.34;52.25;98790.88;2003186;81;20191;-78
2021/06/20 09:39:19;;;;;;;1.79;0.84;;;;;;;25.52;53.44;98778.88;2002589;81;20203;-78
2021/06/20 09:42:22;;;;;;;0.71;0.68;;;;;;;25.82;53.39;98770.38;2001935;81;20186;-78
2021/06/20 09:45:34;;;;;;;2.70;0.79;;;;;;;26.37;52.83;98760.78;2002595;80;20870;-78
2021/06/20 09:48:37;;;;;;;4.47;0.90;;;;;;;26.66;51.89;98746.00;2007424;80;20193;-80
2021/06/20 09:51:39;;;;;;;4.86;0.95;;;;;;;26.91;52.05;98738.66;2007062;80;20189;-79
2021/06/20 09:54:53;;;;;;;3.46;0.80;;;;;;;27.23;51.16;98738.72;2007451;80;20185;-79
2021/06/20 09:58:00;;;;;;;2.55;0.77;;;;;;;27.28;49.66;98737.34;2009150;80;20189;-76
2021/06/20 10:01:16;;;;;;;3.70;0.90;;;;;;;27.31;49.45;98729.13;2004824;79;20841;-79
2021/06/20 10:04:18;;;;;;;1.84;0.86;;;;;;;27.33;49.10;98740.50;2001881;81;20215;-79
2021/06/20 10:07:28;;;;;;;3.84;0.80;;;;;;;27.08;48.53;98731.00;2002245;81;20193;-78
2021/06/20 10:10:31;;;;;;;3.99;1.00;;;;;;;27.16;49.44;98727.72;2001731;81;20162;-77
2021/06/20 10:13:34;;;;;;;2.35;0.96;;;;;;;27.19;48.95;98734.63;2001980;81;20588;-76
2021/06/20 10:16:39;;;;;;;2.51;0.82;;;;;;;27.50;49.77;98723.06;2003729;78;21374;-79
2021/06/20 10:19:49;;;;;;;2.78;0.70;;;;;;;27.94;48.98;98719.28;2007890;80;20381;-79
2021/06/20 10:22:52;;;;;;;2.36;0.80;;;;;;;28.29;47.05;98713.56;2007386;80;20177;-80
2021/06/20 10:26:05;;;;;;;2.40;0.76;;;;;;;28.52;46.80;98710.69;2007869;80;20261;-79
2021/06/20 10:29:19;;;;;;;4.28;0.85;;;;;;;28.74;45.78;98696.25;2008155;80;20176;-79
2021/06/20 10:32:23;;;;;;;3.89;0.90;;;;;;;28.78;45.58;98695.84;2003255;79;20965;-77
2021/06/20 10:35:26;;;;;;;4.59;0.79;;;;;;;28.99;44.00;98687.72;2002505;81;20263;-81
2021/06/20 10:38:34;;;;;;;1.99;0.79;;;;;;;29.08;44.00;98678.00;2001754;81;20198;-80
2021/06/20 10:41:37;;;;;;;4.35;1.13;;;;;;;29.15;44.48;98673.78;2002356;81;20203;-79
2021/06/20 10:44:52;;;;;;;1.59;0.70;;;;;;;29.42;42.92;98678.41;2002425;81;20198;-80
2021/06/20 10:47:57;;;;;;;5.32;0.80;;;;;;;29.45;42.25;98687.03;2005849;78;20750;-77
2021/06/20 10:51:00;;;;;;;8.94;0.80;;;;;;;29.48;41.33;98672.53;2005793;80;20198;-77
2021/06/20 10:54:06;;;;;;;3.04;0.70;;;;;;;29.68;41.96;98660.78;2005865;80;20177;-79
2021/06/20 10:57:29;;;;;;;3.49;0.80;;;;;;;29.76;41.14;98650.19;2006156;80;20222;-76
2021/06/20 11:00:36;;;;;;;3.45;0.80;;;;;;;29.99;42.01;98639.97;2003776;80;25925;-78
2021/06/20 11:03:41;;;;;;;2.31;0.71;;;;;;;30.02;41.53;98634.31;2000251;81;20219;-79
2021/06/20 11:06:57;;;;;;;1.54;0.59;;;;;;;30.19;41.49;98622.00;2001012;81;20169;-79
2021/06/20 11:09:59;;;;;;;1.86;0.95;;;;;;;30.50;40.54;98618.94;2002752;81;20215;-79
2021/06/20 11:13:02;;;;;;;1.34;0.61;;;;;;;30.46;39.46;98625.63;2002683;81;20166;-80
2021/06/20 11:16:29;;;;;;;3.51;0.61;;;;;;;30.30;38.65;98615.56;2001610;79;22328;-77
2021/06/20 11:19:32;;;;;;;2.91;0.60;;;;;;;30.20;38.41;98617.47;2000119;81;20195;-77
2021/06/20 11:22:35;;;;;;;2.29;0.60;;;;;;;30.18;38.85;98619.47;2002258;81;20341;-78
2021/06/20 11:25:38;;;;;;;0.79;0.63;;;;;;;30.14;38.02;98616.22;2001891;81;20683;-78
2021/06/20 11:28:41;;;;;;;2.10;0.77;;;;;;;30.15;36.48;98619.72;2002007;81;20195;-79
2021/06/20 11:31:49;;;;;;;2.70;0.88;;;;;;;30.07;37.58;98604.44;2004143;78;20181;-84
2021/06/20 11:34:53;;;;;;;;;;;;;;;29.95;38.42;98597.53;2007944;80;20195;-79
2021/06/20 11:37:57;;;;;;;1.00;0.64;;;;;;;30.09;38.11;98602.44;2007385;80;20049;-77
2021/06/20 11:41:13;;;;;;;2.01;0.68;;;;;;;30.31;37.19;98612.72;2007026;80;20207;-77
2021/06/20 11:44:17;;;;;;;1.74;0.68;;;;;;;30.34;37.16;98617.81;2007270;80;20222;-77
2021/06/20 11:47:27;;;;;;;2.34;0.71;;;;;;;30.15;36.75;98607.19;2002449;78;21240;-76
2021/06/20 11:50:34;;;;;;;1.88;0.63;;;;;;;30.16;35.98;98600.84;2001904;81;20223;-76
2021/06/20 11:53:37;;;;;;;1.11;0.56;;;;;;;29.95;37.21;98585.00;2002101;81;20310;-76
2021/06/20 11:56:41;;;;;;;2.13;0.63;;;;;;;30.48;38.22;98580.75;2001950;81;20200;-76
2021/06/20 11:59:44;;;;;;;2.00;0.70;;;;;;;30.90;36.56;98573.81;2001961;81;20646;-76
2021/06/20 12:03:01;;;;;;;1.84;0.79;;;;;;;30.68;35.62;98568.91;2005024;80;24683;-76
2021/06/20 12:06:05;;;;;;;1.18;0.60;;;;;;;30.58;36.92;98563.63;2007396;80;20696;-76
2021/06/20 12:09:10;;;;;;;2.47;0.98;;;;;;;30.57;38.33;98553.91;2007133;80;20355;-76
2021/06/20 12:12:13;;;;;;;3.44;0.55;;;;;;;31.00;37.55;98546.03;2007264;80;20656;-76
2021/06/20 12:15:19;;;;;;;2.42;0.69;;;;;;;31.04;37.48;98548.25;2009070;80;20222;-76
2021/06/20 12:18:24;;;;;;;4.35;0.70;;;;;;;30.89;37.51;98545.31;2001919;78;21988;-76
2021/06/20 12:21:30;;;;;;;2.13;0.70;;;;;;;30.93;36.94;98541.31;2002243;81;20294;-76
2021/06/20 12:24:44;;;;;;;1.29;0.70;;;;;;;30.87;37.76;98543.75;2002234;81;20937;-75
2021/06/20 12:27:47;;;;;;;2.80;0.60;;;;;;;31.21;37.79;98517.88;2001367;81;20166;-75
2021/06/20 12:30:51;;;;;;;2.66;0.96;;;;;;;31.34;36.98;98519.31;2002200;78;26925;-75
2021/06/20 12:34:04;;;;;;;4.36;0.73;;;;;;;31.37;37.05;98509.09;2006567;80;20169;-75
2021/06/20 12:37:07;;;;;;;2.13;0.70;;;;;;;31.43;36.57;98502.25;2007224;80;20222;-75
2021/06/20 12:40:15;;;;;;;3.64;0.73;;;;;;;31.59;36.79;98488.88;2006804;80;20233;-75
2021/06/20 12:43:20;;;;;;;2.40;0.65;;;;;;;31.74;36.33;98486.44;2006821;80;20197;-75
2021/06/20 12:46:33;;;;;;;1.67;0.70;;;;;;;31.60;35.27;98478.97;2004549;80;21448;-75
2021/06/20 12:49:37;;;;;;;1.20;0.50;;;;;;;31.36;35.47;98479.72;2002328;81;20219;-75
2021/06/20 12:52:42;;;;;;;1.30;0.75;;;;;;;31.29;36.36;98479.53;2002011;81;20715;-74
2021/06/20 12:55:45;;;;;;;3.31;0.82;;;;;;;30.97;36.12;98490.88;2001582;81;20185;-74
2021/06/20 12:59:08;;;;;;;1.89;0.70;;;;;;;30.91;35.80;98492.38;2001586;81;20215;-74
2021/06/20 13:02:20;;;;;;;2.22;0.80;;;;;;;30.76;36.58;98487.75;2003964;78;20255;-74
2021/06/20 13:05:46;;;;;;;1.04;0.52;;;;;;;30.60;37.04;98485.75;2007097;80;20630;-75
2021/06/20 13:08:49;;;;;;;2.14;0.60;;;;;;;30.30;37.34;98495.03;2010272;80;20180;-74
2021/06/20 13:11:53;;;;;;;3.16;0.56;;;;;;;30.18;37.71;98502.47;2006505;80;20203;-74
2021/06/20 13:14:55;;;;;;;3.75;0.70;;;;;;;30.42;39.44;98496.47;2007146;80;20290;-74
2021/06/20 13:17:59;;;;;;;2.91;0.69;;;;;;;30.63;38.46;98475.56;2000898;78;21493;-74
2021/06/20 13:21:01;;;;;;;2.85;0.82;;;;;;;30.87;38.52;98471.38;2001836;81;20216;-75
2021/06/20 13:24:09;;;;;;;4.44;1.08;;;;;;;31.20;37.79;98467.06;2001841;81;20232;-74
2021/06/20 13:27:11;;;;;;;4.59;0.84;;;;;;;31.32;36.75;98447.03;2000840;81;20274;-74
2021/06/20 13:30:15;;;;;;;2.95;1.24;;;;;;;31.48;37.42;98440.88;2000583;81;20639;-74
2021/06/20 13:33:18;;;;;;;2.71;0.80;;;;;;;31.67;36.57;98432.56;2005238;79;23264;-74
2021/06/20 13:36:21;;;;;;;2.94;0.86;;;;;;;31.89;36.95;98415.00;2005905;80;20208;-74
2021/06/20 13:39:23;;;;;;;2.36;0.73;;;;;;;32.12;36.52;98409.81;2006234;80;20749;-72
2021/06/20 13:42:26;;;;;;;4.31;0.99;;;;;;;32.28;35.84;98414.38;2006595;80;20216;-72
2021/06/20 13:45:31;;;;;;;3.45;0.79;;;;;;;31.96;35.17;98412.47;2005659;78;21170;-73
2021/06/20 13:48:34;;;;;;;4.99;0.90;;;;;;;31.85;36.20;98421.72;2006036;80;20177;-74
2021/06/20 13:51:36;;;;;;;5.88;0.88;;;;;;;31.65;36.07;98429.19;2006019;80;20795;-73
2021/06/20 13:54:39;;;;;;;6.01;1.19;;;;;;;31.39;37.20;98420.38;2007672;80;20197;-74
2021/06/20 13:57:43;;;;;;;5.09;1.14;;;;;;;31.17;37.36;98438.72;2007504;80;20285;-74
2021/06/20 14:00:46;;;;;;;2.69;0.80;;;;;;;30.87;37.79;98437.34;2003949;79;24670;-73
2021/06/20 14:03:49;;;;;;;4.75;1.01;;;;;;;30.70;38.21;98434.72;2001880;81;20190;-74
2021/06/20 14:06:52;;;;;;;4.30;0.90;;;;;;;30.59;38.28;98431.31;2002692;81;20174;-73
2021/06/20 14:09:54;;;;;;;2.60;0.96;;;;;;;30.55;39.51;98421.91;2002155;81;20766;-74
2021/06/20 14:12:59;;;;;;;4.89;0.80;;;;;;;30.52;39.52;98422.22;2002046;81;20195;-74
2021/06/20 14:16:02;;;;;;;5.64;0.81;;;;;;;30.35;39.76;98415.91;2001641;78;22012;-73
2021/06/20 14:19:05;;;;;;;7.39;1.10;;;;;;;30.24;39.89;98405.41;2007449;80;20177;-73
2021/06/20 14:22:07;;;;;;;3.96;1.29;;;;;;;30.13;40.86;98396.78;2007085;80;20161;-77
2021/06/20 14:25:10;;;;;;;10.91;1.00;;;;;;;29.89;39.89;98408.94;2008159;80;20193;-72
2021/06/20 14:28:13;;;;;;;4.65;1.14;;;;;;;29.55;41.75;98402.56;2007412;80;20343;-72